createdAt,value
2022-09-24T00:02:16.975Z,5.70
2022-09-24T00:04:44.998Z,7.57
2022-09-24T00:07:12.979Z,108.33
2022-09-24T00:09:41.325Z,13.97
2022-09-24T00:12:12.967Z,7.43
2022-09-24T00:14:41.136Z,24.63
2022-09-24T00:17:09.132Z,3.83
2022-09-24T00:19:38.579Z,4.20
2022-09-24T00:22:06.574Z,11.93
2022-09-24T00:24:52.215Z,7.50
2022-09-24T00:27:20.204Z,18.13
2022-09-24T00:29:48.221Z,20.87
2022-09-24T00:32:16.335Z,4.93
2022-09-24T00:34:45.679Z,20.20
2022-09-24T00:37:13.636Z,8.87
2022-09-24T00:39:41.724Z,4.27
2022-09-24T00:42:10.545Z,9.93
2022-09-24T00:44:54.499Z,6.67
2022-09-24T00:47:34.647Z,6.87
2022-09-24T00:50:14.855Z,7.33
2022-09-24T00:52:46.798Z,6.67
2022-09-24T00:55:15.770Z,4.30
2022-09-24T00:57:44.801Z,4.53
2022-09-24T01:00:14.020Z,6.07
2022-09-24T01:02:45.610Z,6.07
2022-09-24T01:05:14.988Z,7.87
2022-09-24T01:07:43.024Z,6.97
2022-09-24T01:10:11.771Z,4.93
2022-09-24T01:12:46.857Z,6.80
2022-09-24T01:15:23.199Z,6.27
2022-09-24T01:17:59.397Z,6.50
2022-09-24T01:20:58.256Z,10.83
2022-09-24T01:24:04.699Z,7.07
2022-09-24T01:26:46.305Z,5.10
2022-09-24T01:29:42.016Z,7.13
2022-09-24T01:32:17.926Z,6.07
2022-09-24T01:34:49.282Z,5.03
2022-09-24T01:37:22.358Z,10.40
2022-09-24T01:39:52.985Z,5.87
2022-09-24T01:42:23.086Z,11.37
2022-09-24T01:44:52.489Z,7.87
2022-09-24T01:47:33.545Z,6.33
2022-09-24T01:50:03.895Z,11.20
2022-09-24T01:52:36.612Z,5.63
2022-09-24T01:55:08.638Z,4.97
2022-09-24T01:57:43.023Z,11.17
2022-09-24T02:00:15.989Z,7.30
2022-09-24T02:02:48.862Z,11.03
2022-09-24T02:05:23.956Z,14.67
2022-09-24T02:07:59.197Z,27.77
2022-09-24T02:10:30.991Z,19.93
2022-09-24T02:13:03.142Z,39.73
2022-09-24T02:15:35.731Z,10.30
2022-09-24T02:18:06.909Z,10.80
2022-09-24T02:20:37.167Z,9.90
2022-09-24T02:23:07.134Z,4.80
2022-09-24T02:25:41.909Z,5.40
2022-09-24T02:28:09.885Z,13.60
2022-09-24T02:30:45.483Z,16.47
2022-09-24T02:33:29.253Z,10.83
2022-09-24T02:35:57.950Z,6.70
2022-09-24T02:38:25.929Z,6.80
2022-09-24T02:40:55.375Z,8.03
2022-09-24T02:43:23.428Z,5.40
2022-09-24T02:45:52.819Z,19.67
2022-09-24T02:48:20.991Z,4.60
2022-09-24T02:50:48.976Z,44.80
2022-09-24T02:53:16.930Z,6.93
2022-09-24T02:55:44.908Z,5.40
2022-09-24T02:58:12.864Z,5.00
2022-09-24T03:00:40.843Z,28.80
2022-09-24T03:03:10.206Z,5.20
2022-09-24T03:05:38.276Z,5.43
2022-09-24T03:08:07.589Z,15.93
2022-09-24T03:10:36.003Z,7.13
2022-09-24T03:13:04.035Z,4.60
2022-09-24T03:15:32.099Z,7.23
2022-09-24T03:18:00.062Z,4.97
2022-09-24T03:20:29.427Z,4.70
2022-09-24T03:22:57.546Z,7.40
2022-09-24T03:25:26.747Z,5.93
2022-09-24T03:27:54.728Z,6.70
2022-09-24T03:30:37.028Z,7.50
2022-09-24T03:33:05.131Z,13.40
2022-09-24T03:35:34.608Z,4.57
2022-09-24T03:38:02.700Z,4.20
2022-09-24T03:40:30.729Z,4.63
2022-09-24T03:42:58.717Z,4.10
2022-09-24T03:45:26.898Z,4.90
2022-09-24T03:47:55.424Z,4.60
2022-09-24T03:50:23.668Z,5.40
2022-09-24T03:52:53.045Z,11.23
2022-09-24T03:55:21.026Z,10.77
2022-09-24T03:57:48.974Z,4.20
2022-09-24T04:00:17.167Z,62.70
2022-09-24T04:02:46.262Z,3.87
2022-09-24T04:05:14.339Z,4.40
2022-09-24T04:07:44.059Z,4.07
2022-09-24T04:10:13.767Z,7.63
2022-09-24T04:12:43.632Z,4.53
2022-09-24T04:15:12.178Z,4.90
2022-09-24T04:17:40.398Z,3.80
2022-09-24T04:20:09.121Z,24.63
2022-09-24T04:22:37.093Z,3.93
2022-09-24T04:25:05.497Z,4.00
2022-09-24T04:27:36.156Z,5.27
2022-09-24T04:30:04.211Z,5.37
2022-09-24T04:32:32.456Z,4.13
2022-09-24T04:35:04.123Z,4.40
2022-09-24T04:37:34.968Z,4.30
2022-09-24T04:40:03.407Z,3.90
2022-09-24T04:42:31.457Z,8.13
2022-09-24T04:45:01.069Z,5.83
2022-09-24T04:47:29.324Z,7.73
2022-09-24T04:49:57.286Z,5.83
2022-09-24T04:52:29.727Z,4.37
2022-09-24T04:54:58.088Z,3.50
2022-09-24T04:57:26.492Z,4.37
2022-09-24T04:59:55.534Z,3.93
2022-09-24T05:02:25.157Z,4.60
2022-09-24T05:04:53.235Z,3.93
2022-09-24T05:07:21.279Z,3.67
2022-09-24T05:09:49.222Z,4.87
2022-09-24T05:12:18.860Z,3.47
2022-09-24T05:14:48.763Z,4.87
2022-09-24T05:17:16.915Z,4.37
2022-09-24T05:19:46.235Z,4.57
2022-09-24T05:22:14.235Z,3.80
2022-09-24T05:24:42.174Z,4.63
2022-09-24T05:27:09.833Z,4.23
2022-09-24T05:29:38.934Z,4.90
2022-09-24T05:32:08.758Z,5.17
2022-09-24T05:34:36.715Z,4.20
2022-09-24T05:37:06.314Z,3.90
2022-09-24T05:39:34.536Z,4.77
2022-09-24T05:42:03.730Z,4.00
2022-09-24T05:44:31.829Z,3.70
2022-09-24T05:47:00.272Z,9.90
2022-09-24T05:49:28.307Z,5.87
2022-09-24T05:51:56.914Z,13.90
2022-09-24T05:54:26.506Z,6.33
2022-09-24T05:56:54.703Z,9.70
2022-09-24T05:59:22.708Z,3.73
2022-09-24T06:01:50.810Z,14.00
2022-09-24T06:04:18.871Z,3.73
2022-09-24T06:06:46.849Z,4.20
2022-09-24T06:09:14.958Z,7.20
2022-09-24T06:11:44.446Z,4.50
2022-09-24T06:14:13.208Z,6.47
2022-09-24T06:16:41.250Z,6.70
2022-09-24T06:19:09.319Z,5.37
2022-09-24T06:21:37.344Z,5.00
2022-09-24T06:24:05.720Z,5.90
2022-09-24T06:26:34.228Z,28.07
2022-09-24T06:29:05.093Z,14.13
2022-09-24T06:31:34.779Z,5.03
2022-09-24T06:34:03.804Z,7.23
2022-09-24T06:36:31.904Z,12.30
2022-09-24T06:39:00.146Z,23.43
2022-09-24T06:41:28.129Z,18.67
2022-09-24T06:43:56.437Z,11.13
2022-09-24T06:46:25.943Z,156.93
2022-09-24T06:48:55.217Z,40.87
2022-09-24T06:51:23.236Z,108.90
2022-09-24T06:53:53.406Z,187.13
2022-09-24T06:56:21.499Z,144.00
2022-09-24T06:58:49.495Z,112.03
2022-09-24T07:01:17.573Z,199.43
2022-09-24T07:03:47.086Z,179.40
2022-09-24T07:06:15.034Z,131.43
2022-09-24T07:08:43.237Z,183.90
2022-09-24T07:11:11.288Z,281.07
2022-09-24T07:13:39.275Z,296.30
2022-09-24T07:16:07.628Z,269.40
2022-09-24T07:18:37.600Z,328.63
2022-09-24T07:21:07.302Z,294.07
2022-09-24T07:23:35.359Z,306.03
2022-09-24T07:26:03.308Z,289.73
2022-09-24T07:28:31.380Z,314.30
2022-09-24T07:31:00.756Z,342.58
2022-09-24T07:33:28.879Z,332.87
2022-09-24T07:35:56.819Z,279.33
2022-09-24T07:38:27.055Z,272.33
2022-09-24T07:40:59.158Z,244.27
2022-09-24T07:43:28.589Z,249.60
2022-09-24T07:45:58.159Z,144.40
2022-09-24T07:48:26.455Z,121.50
2022-09-24T07:50:54.434Z,162.30
2022-09-24T07:53:23.630Z,144.67
2022-09-24T07:55:52.950Z,80.90
2022-09-24T07:58:21.872Z,146.90
2022-09-24T08:00:49.835Z,143.77
2022-09-24T08:03:17.928Z,110.30
2022-09-24T08:05:46.169Z,147.20
2022-09-24T08:08:14.728Z,44.17
2022-09-24T08:10:43.518Z,81.43
2022-09-24T08:13:12.927Z,166.53
2022-09-24T08:15:41.313Z,158.60
2022-09-24T08:18:09.767Z,89.70
2022-09-24T08:20:39.255Z,92.07
2022-09-24T08:23:09.968Z,112.10
2022-09-24T08:25:38.007Z,153.50
2022-09-24T08:28:07.482Z,90.50
2022-09-24T08:30:37.252Z,122.87
2022-09-24T08:33:06.824Z,127.53
2022-09-24T08:35:35.261Z,152.07
2022-09-24T08:38:03.794Z,79.30
2022-09-24T08:40:35.359Z,133.00
2022-09-24T08:43:11.071Z,101.90
2022-09-24T08:46:04.907Z,120.13
2022-09-24T08:48:37.283Z,119.73
2022-09-24T08:51:09.491Z,153.23
2022-09-24T08:53:46.254Z,71.63
2022-09-24T08:56:15.355Z,74.97
2022-09-24T08:58:49.581Z,112.07
2022-09-24T09:01:26.148Z,147.87
2022-09-24T09:03:58.656Z,94.90
2022-09-24T09:06:48.758Z,138.10
2022-09-24T09:09:19.901Z,188.50
2022-09-24T09:11:51.042Z,156.00
2022-09-24T09:14:23.360Z,158.80
2022-09-24T09:16:56.605Z,132.00
2022-09-24T09:19:31.236Z,102.23
2022-09-24T09:22:02.745Z,140.93
2022-09-24T09:24:40.953Z,203.63
2022-09-24T09:27:14.793Z,129.37
2022-09-24T09:29:43.843Z,136.10
2022-09-24T09:32:26.128Z,139.30
2022-09-24T09:35:04.489Z,194.03
2022-09-24T09:37:41.288Z,205.57
2022-09-24T09:40:29.083Z,81.47
2022-09-24T09:43:03.996Z,156.00
2022-09-24T09:45:39.199Z,118.53
2022-09-24T09:48:14.133Z,125.43
2022-09-24T09:50:46.820Z,153.68
2022-09-24T09:53:22.308Z,178.23
2022-09-24T09:55:55.599Z,219.98
2022-09-24T09:58:25.324Z,151.50
2022-09-24T10:00:54.416Z,150.67
2022-09-24T10:03:26.936Z,124.45
2022-09-24T10:05:57.141Z,134.52
2022-09-24T10:08:25.929Z,178.93
2022-09-24T10:10:56.283Z,263.33
2022-09-24T10:13:25.262Z,207.75
2022-09-24T10:15:55.075Z,183.07
2022-09-24T10:18:31.319Z,167.68
2022-09-24T10:21:03.343Z,241.27
2022-09-24T10:23:37.372Z,230.32
2022-09-24T10:26:06.327Z,150.75
2022-09-24T10:28:53.479Z,188.30
2022-09-24T10:31:23.467Z,88.95
2022-09-24T10:33:56.788Z,172.77
2022-09-24T10:36:26.924Z,216.00
2022-09-24T10:39:04.886Z,143.02
2022-09-24T10:41:33.357Z,258.08
2022-09-24T10:44:05.444Z,208.15
2022-09-24T10:47:05.462Z,197.38
2022-09-24T10:49:54.068Z,153.60
2022-09-24T10:52:43.913Z,176.68
2022-09-24T10:55:24.491Z,192.93
2022-09-24T10:58:02.971Z,299.58
2022-09-24T11:00:40.048Z,120.45
2022-09-24T11:03:29.006Z,154.93
2022-09-24T11:06:03.406Z,224.32
2022-09-24T11:08:48.146Z,222.25
2022-09-24T11:11:31.316Z,137.43
2022-09-24T11:14:12.766Z,163.60
2022-09-24T11:16:55.310Z,252.02
2022-09-24T11:19:43.116Z,206.20
2022-09-24T11:22:16.362Z,241.05
2022-09-24T11:25:13.271Z,238.15
2022-09-24T11:27:52.631Z,138.02
2022-09-24T11:30:24.912Z,169.63
2022-09-24T11:33:03.688Z,168.23
2022-09-24T11:36:02.854Z,204.85
2022-09-24T11:38:45.406Z,176.45
2022-09-24T11:41:27.966Z,255.77
2022-09-24T11:44:13.591Z,211.32
2022-09-24T11:46:52.125Z,238.25
2022-09-24T11:49:34.592Z,300.35
2022-09-24T11:52:09.230Z,188.18
2022-09-24T11:54:44.528Z,231.43
2022-09-24T11:57:18.876Z,213.85
2022-09-24T11:59:54.304Z,221.00
2022-09-24T12:02:26.116Z,230.60
2022-09-24T12:05:00.684Z,156.77
2022-09-24T12:07:35.775Z,230.00
2022-09-24T12:10:14.091Z,212.52
2022-09-24T12:12:45.479Z,261.13
2022-09-24T12:15:19.551Z,287.25
2022-09-24T12:17:52.364Z,270.45
2022-09-24T12:20:26.247Z,283.75
2022-09-24T12:23:00.220Z,275.27
2022-09-24T12:25:33.692Z,250.82
2022-09-24T12:28:02.751Z,282.10
2022-09-24T12:30:53.475Z,241.60
2022-09-24T12:33:29.072Z,214.95
2022-09-24T12:36:05.466Z,253.27
2022-09-24T12:38:37.841Z,302.73
2022-09-24T12:41:21.634Z,217.40
2022-09-24T12:43:53.907Z,302.13
2022-09-24T12:46:25.257Z,281.27
2022-09-24T12:48:55.582Z,291.98
2022-09-24T12:51:24.057Z,236.13
2022-09-24T12:54:01.316Z,210.80
2022-09-24T12:56:31.734Z,237.35
2022-09-24T12:58:59.833Z,207.55
2022-09-24T13:01:30.406Z,257.38
2022-09-24T13:04:08.212Z,246.20
2022-09-24T13:06:38.652Z,157.13
2022-09-24T13:09:35.646Z,229.27
2022-09-24T13:12:19.499Z,249.32
2022-09-24T13:14:53.287Z,275.08
2022-09-24T13:17:21.394Z,268.48
2022-09-24T13:19:51.602Z,235.07
2022-09-24T13:22:24.480Z,303.13
2022-09-24T13:24:54.570Z,210.43
2022-09-24T13:27:37.722Z,297.13
2022-09-24T13:30:17.424Z,209.48
2022-09-24T13:32:52.047Z,288.25
2022-09-24T13:35:25.320Z,155.63
2022-09-24T13:37:59.707Z,330.02
2022-09-24T13:40:34.141Z,255.27
2022-09-24T13:43:08.319Z,239.43
2022-09-24T13:45:41.962Z,205.18
2022-09-24T13:48:20.215Z,229.82
2022-09-24T13:50:53.344Z,123.43
2022-09-24T13:53:29.695Z,186.93
2022-09-24T13:56:01.246Z,213.07
2022-09-24T13:58:32.714Z,231.60
2022-09-24T14:01:07.447Z,204.48
2022-09-24T14:03:39.619Z,205.30
2022-09-24T14:06:11.967Z,146.32
2022-09-24T14:08:43.279Z,214.70
2022-09-24T14:11:17.010Z,215.40
2022-09-24T14:13:47.216Z,278.77
2022-09-24T14:16:18.526Z,291.00
2022-09-24T14:18:47.636Z,233.35
2022-09-24T14:21:21.120Z,230.55
2022-09-24T14:23:52.375Z,251.98
2022-09-24T14:26:29.312Z,193.77
2022-09-24T14:29:01.315Z,223.20
2022-09-24T14:31:31.117Z,186.95
2022-09-24T14:34:02.339Z,220.90
2022-09-24T14:36:30.461Z,188.07
2022-09-24T14:39:03.447Z,206.60
2022-09-24T14:41:33.512Z,235.32
2022-09-24T14:44:06.995Z,169.88
2022-09-24T14:46:38.475Z,231.00
2022-09-24T14:49:08.424Z,210.48
2022-09-24T14:51:37.310Z,161.30
2022-09-24T14:54:20.666Z,159.52
2022-09-24T14:56:48.783Z,278.80
2022-09-24T14:59:29.293Z,239.20
2022-09-24T15:02:07.581Z,214.52
2022-09-24T15:04:36.120Z,171.43
2022-09-24T15:07:04.270Z,188.75
2022-09-24T15:09:32.948Z,183.70
2022-09-24T15:12:09.014Z,206.25
2022-09-24T15:14:38.677Z,240.80
2022-09-24T15:17:11.523Z,199.60
2022-09-24T15:19:43.162Z,191.82
2022-09-24T15:22:11.288Z,196.10
2022-09-24T15:24:39.895Z,333.17
2022-09-24T15:27:17.197Z,137.20
2022-09-24T15:29:46.668Z,323.75
2022-09-24T15:32:17.602Z,191.23
2022-09-24T15:34:46.236Z,220.70
2022-09-24T15:37:17.379Z,363.27
2022-09-24T15:39:49.432Z,112.88
2022-09-24T15:42:18.179Z,256.48
2022-09-24T15:44:48.304Z,382.23
2022-09-24T15:47:16.406Z,314.52
2022-09-24T15:49:44.771Z,208.45
2022-09-24T15:52:16.292Z,242.70
2022-09-24T15:54:44.356Z,176.82
2022-09-24T15:57:13.739Z,112.63
2022-09-24T15:59:41.816Z,164.25
2022-09-24T16:02:18.421Z,205.88
2022-09-24T16:04:46.433Z,158.55
2022-09-24T16:07:14.491Z,274.52
2022-09-24T16:09:42.504Z,174.60
2022-09-24T16:12:11.666Z,151.85
2022-09-24T16:14:39.694Z,171.38
2022-09-24T16:17:07.730Z,170.57
2022-09-24T16:19:37.138Z,157.00
2022-09-24T16:22:05.525Z,129.52
2022-09-24T16:24:33.768Z,77.00
2022-09-24T16:27:01.856Z,135.38
2022-09-24T16:29:29.878Z,115.75
2022-09-24T16:31:57.953Z,116.35
2022-09-24T16:34:26.409Z,68.60
2022-09-24T16:36:56.032Z,107.97
2022-09-24T16:39:24.012Z,111.63
2022-09-24T16:41:52.474Z,56.15
2022-09-24T16:44:20.498Z,117.78
2022-09-24T16:46:48.536Z,110.03
2022-09-24T16:49:16.673Z,143.23
2022-09-24T16:51:45.101Z,141.82
2022-09-24T16:54:14.452Z,426.13
2022-09-24T16:56:42.685Z,144.63
2022-09-24T16:59:11.722Z,210.48
2022-09-24T17:01:42.414Z,114.85
2022-09-24T17:04:10.592Z,257.95
2022-09-24T17:06:38.731Z,64.07
2022-09-24T17:09:24.325Z,108.32
2022-09-24T17:11:53.760Z,248.63
2022-09-24T17:14:21.932Z,75.88
2022-09-24T17:16:50.015Z,242.65
2022-09-24T17:19:17.982Z,121.63
2022-09-24T17:21:50.146Z,367.08
2022-09-24T17:24:21.425Z,87.55
2022-09-24T17:26:50.042Z,83.93
2022-09-24T17:29:20.772Z,170.40
2022-09-24T17:31:48.910Z,59.10
2022-09-24T17:34:16.899Z,146.55
2022-09-24T17:36:44.925Z,146.98
2022-09-24T17:39:14.220Z,133.52
2022-09-24T17:41:42.362Z,57.80
2022-09-24T17:44:12.439Z,101.63
2022-09-24T17:46:41.847Z,115.45
2022-09-24T17:49:11.322Z,109.18
2022-09-24T17:51:39.521Z,198.32
2022-09-24T17:54:11.013Z,185.18
2022-09-24T17:56:39.306Z,122.93
2022-09-24T17:59:07.815Z,65.38
2022-09-24T18:01:37.787Z,103.30
2022-09-24T18:04:10.545Z,145.00
2022-09-24T18:06:40.093Z,56.63
2022-09-24T18:09:09.288Z,240.68
2022-09-24T18:11:40.923Z,65.47
2022-09-24T18:14:14.523Z,103.10
2022-09-24T18:16:42.831Z,117.63
2022-09-24T18:19:15.727Z,95.68
2022-09-24T18:21:44.438Z,104.63
2022-09-24T18:24:12.760Z,122.30
2022-09-24T18:26:41.431Z,94.60
2022-09-24T18:29:13.698Z,93.20
2022-09-24T18:31:42.285Z,80.18
2022-09-24T18:34:14.916Z,59.87
2022-09-24T18:36:44.639Z,60.87
2022-09-24T18:39:17.602Z,71.93
2022-09-24T18:41:48.268Z,374.40
2022-09-24T18:44:16.368Z,84.83
2022-09-24T18:46:45.527Z,106.73
2022-09-24T18:49:14.936Z,85.77
2022-09-24T18:51:43.063Z,52.73
2022-09-24T18:54:14.286Z,111.77
2022-09-24T18:56:43.551Z,89.55
2022-09-24T18:59:15.890Z,65.63
2022-09-24T19:01:45.362Z,175.37
2022-09-24T19:04:15.582Z,84.40
2022-09-24T19:06:45.948Z,106.33
2022-09-24T19:09:17.311Z,53.83
2022-09-24T19:11:46.178Z,85.47
2022-09-24T19:14:18.113Z,91.00
2022-09-24T19:16:47.117Z,88.90
2022-09-24T19:19:16.702Z,54.23
2022-09-24T19:21:45.009Z,59.57
2022-09-24T19:24:13.019Z,62.83
2022-09-24T19:26:41.020Z,27.83
2022-09-24T19:29:09.142Z,72.77
2022-09-24T19:31:39.027Z,49.83
2022-09-24T19:34:08.860Z,34.03
2022-09-24T19:36:43.913Z,162.63
2022-09-24T19:39:14.217Z,41.10
2022-09-24T19:41:42.770Z,28.60
2022-09-24T19:44:11.590Z,37.57
2022-09-24T19:46:40.941Z,71.80
2022-09-24T19:49:09.175Z,35.93
2022-09-24T19:51:38.563Z,66.80
2022-09-24T19:54:08.537Z,38.33
2022-09-24T19:56:37.304Z,63.53
2022-09-24T19:59:07.943Z,33.03
2022-09-24T20:01:36.122Z,36.40
2022-09-24T20:04:07.220Z,75.03
2022-09-24T20:06:36.796Z,52.03
2022-09-24T20:09:07.021Z,20.90
2022-09-24T20:11:35.925Z,34.43
2022-09-24T20:14:05.923Z,58.87
2022-09-24T20:16:34.373Z,17.93
2022-09-24T20:19:03.355Z,61.53
2022-09-24T20:21:34.828Z,41.73
2022-09-24T20:24:06.014Z,31.23
2022-09-24T20:27:03.086Z,39.07
2022-09-24T20:29:31.060Z,32.90
2022-09-24T20:31:59.093Z,124.37
2022-09-24T20:34:33.586Z,90.93
2022-09-24T20:37:02.673Z,49.63
2022-09-24T20:39:32.943Z,54.27
2022-09-24T20:42:03.675Z,70.07
2022-09-24T20:44:32.168Z,17.30
2022-09-24T20:47:00.268Z,17.43
2022-09-24T20:49:29.910Z,117.63
2022-09-24T20:51:58.283Z,35.33
2022-09-24T20:54:26.877Z,51.50
2022-09-24T20:56:56.487Z,39.17
2022-09-24T20:59:25.600Z,58.63
2022-09-24T21:01:53.952Z,40.73
2022-09-24T21:04:22.567Z,21.63
2022-09-24T21:06:51.011Z,61.87
2022-09-24T21:09:19.200Z,34.47
2022-09-24T21:11:47.859Z,19.10
2022-09-24T21:14:17.848Z,31.23
2022-09-24T21:16:45.951Z,47.37
2022-09-24T21:19:15.580Z,35.63
2022-09-24T21:21:43.792Z,62.90
2022-09-24T21:24:14.031Z,50.80
2022-09-24T21:26:42.800Z,79.77
2022-09-24T21:29:15.453Z,35.37
2022-09-24T21:31:46.252Z,30.90
2022-09-24T21:34:16.057Z,38.20
2022-09-24T21:36:45.631Z,54.50
2022-09-24T21:39:16.330Z,29.47
2022-09-24T21:41:47.107Z,101.17
2022-09-24T21:44:16.218Z,56.13
2022-09-24T21:46:46.129Z,24.40
2022-09-24T21:49:14.129Z,17.60
2022-09-24T21:51:43.428Z,66.63
2022-09-24T21:54:15.401Z,18.07
2022-09-24T21:56:43.432Z,42.77
2022-09-24T21:59:25.856Z,33.00
2022-09-24T22:01:55.991Z,38.70
2022-09-24T22:04:24.121Z,16.67
2022-09-24T22:06:52.595Z,31.17
2022-09-24T22:09:21.536Z,25.87
2022-09-24T22:11:51.558Z,46.80
2022-09-24T22:14:19.709Z,77.90
2022-09-24T22:16:47.934Z,26.67
2022-09-24T22:19:17.365Z,49.70
2022-09-24T22:21:45.498Z,41.00
2022-09-24T22:24:13.521Z,71.13
2022-09-24T22:26:41.593Z,31.80
2022-09-24T22:29:09.612Z,73.57
2022-09-24T22:31:37.589Z,63.50
2022-09-24T22:34:23.161Z,34.23
2022-09-24T22:36:52.541Z,21.90
2022-09-24T22:39:20.604Z,40.00
2022-09-24T22:41:48.560Z,126.20
2022-09-24T22:44:16.541Z,24.93
2022-09-24T22:46:44.707Z,25.70
2022-09-24T22:49:12.900Z,24.47
2022-09-24T22:51:40.900Z,53.93
2022-09-24T22:54:10.602Z,32.53
2022-09-24T22:56:38.819Z,16.43
2022-09-24T22:59:07.137Z,87.53
2022-09-24T23:01:39.508Z,39.27
2022-09-24T23:04:07.791Z,31.80
2022-09-24T23:06:35.888Z,58.77
2022-09-24T23:09:04.219Z,46.67
2022-09-24T23:11:35.267Z,29.07
2022-09-24T23:14:06.326Z,54.37
2022-09-24T23:16:35.961Z,101.57
2022-09-24T23:19:07.493Z,15.93
2022-09-24T23:21:36.131Z,24.30
2022-09-24T23:24:06.575Z,31.10
2022-09-24T23:26:36.620Z,26.77
2022-09-24T23:29:04.776Z,33.53
2022-09-24T23:31:35.602Z,26.23
2022-09-24T23:34:04.600Z,67.57
2022-09-24T23:36:33.488Z,51.03
2022-09-24T23:39:02.510Z,72.80
2022-09-24T23:41:31.756Z,100.30
2022-09-24T23:44:01.658Z,45.63
2022-09-24T23:46:29.943Z,26.70
2022-09-24T23:48:58.139Z,82.17
2022-09-24T23:51:26.751Z,73.93
2022-09-24T23:53:55.109Z,128.17
2022-09-24T23:56:23.338Z,151.80
2022-09-24T23:58:51.362Z,114.30
